createdAt,value
2022-10-01T00:00:00.920Z,10.87
2022-10-01T00:02:30.405Z,9.13
2022-10-01T00:04:58.472Z,10.23
2022-10-01T00:07:26.707Z,10.07
2022-10-01T00:09:54.770Z,8.87
2022-10-01T00:12:22.910Z,11.47
2022-10-01T00:14:51.024Z,10.23
2022-10-01T00:17:19.144Z,9.37
2022-10-01T00:19:48.729Z,8.17
2022-10-01T00:22:18.932Z,10.97
2022-10-01T00:24:47.892Z,10.13
2022-10-01T00:27:16.092Z,11.67
2022-10-01T00:29:45.305Z,8.97
2022-10-01T00:32:13.459Z,7.77
2022-10-01T00:34:41.553Z,9.80
2022-10-01T00:37:12.336Z,11.13
2022-10-01T00:39:40.448Z,9.77
2022-10-01T00:42:18.696Z,9.00
2022-10-01T00:44:47.109Z,11.33
2022-10-01T00:47:28.131Z,11.87
2022-10-01T00:50:07.041Z,9.03
2022-10-01T00:52:42.010Z,9.57
2022-10-01T00:55:18.135Z,8.93
2022-10-01T00:57:46.739Z,10.43
2022-10-01T01:00:15.680Z,10.90
2022-10-01T01:02:44.357Z,10.17
2022-10-01T01:05:13.591Z,10.03
2022-10-01T01:07:49.064Z,9.53
2022-10-01T01:10:25.455Z,9.57
2022-10-01T01:13:12.723Z,9.87
2022-10-01T01:15:49.194Z,8.00
2022-10-01T01:18:24.992Z,11.90
2022-10-01T01:21:15.775Z,10.87
2022-10-01T01:24:26.740Z,9.03
2022-10-01T01:27:16.722Z,10.50
2022-10-01T01:29:55.307Z,8.67
2022-10-01T01:32:31.554Z,9.63
2022-10-01T01:35:05.082Z,11.57
2022-10-01T01:37:39.799Z,9.23
2022-10-01T01:40:13.459Z,10.07
2022-10-01T01:42:46.128Z,10.97
2022-10-01T01:45:23.564Z,14.73
2022-10-01T01:47:56.031Z,12.23
2022-10-01T01:50:28.284Z,9.83
2022-10-01T01:52:57.591Z,13.20
2022-10-01T01:55:30.915Z,12.43
2022-10-01T01:58:00.029Z,11.07
2022-10-01T02:00:29.680Z,10.37
2022-10-01T02:02:59.184Z,9.60
2022-10-01T02:05:34.041Z,14.50
2022-10-01T02:08:27.912Z,10.17
2022-10-01T02:11:22.870Z,12.07
2022-10-01T02:14:15.721Z,11.67
2022-10-01T02:16:55.185Z,10.10
2022-10-01T02:19:33.614Z,11.93
2022-10-01T02:22:05.755Z,12.40
2022-10-01T02:24:40.360Z,13.27
2022-10-01T02:27:14.862Z,15.70
2022-10-01T02:29:46.164Z,13.23
2022-10-01T02:32:19.044Z,12.33
2022-10-01T02:34:51.053Z,14.23
2022-10-01T02:37:25.528Z,11.83
2022-10-01T02:39:57.388Z,14.50
2022-10-01T02:42:29.691Z,13.20
2022-10-01T02:45:04.293Z,13.83
2022-10-01T02:47:39.976Z,14.23
2022-10-01T02:50:10.406Z,15.00
2022-10-01T02:52:46.832Z,16.77
2022-10-01T02:55:19.971Z,19.00
2022-10-01T02:57:47.197Z,20.13
2022-10-01T03:00:21.185Z,20.77
2022-10-01T03:02:51.429Z,18.17
2022-10-01T03:05:20.542Z,17.77
2022-10-01T03:07:49.338Z,18.67
2022-10-01T03:10:18.239Z,15.40
2022-10-01T03:12:47.049Z,17.10
2022-10-01T03:15:19.069Z,19.17
2022-10-01T03:17:53.809Z,18.07
2022-10-01T03:20:22.420Z,19.43
2022-10-01T03:22:50.718Z,16.47
2022-10-01T03:25:18.969Z,16.10
2022-10-01T03:27:47.403Z,20.30
2022-10-01T03:30:15.653Z,18.23
2022-10-01T03:32:43.726Z,21.87
2022-10-01T03:35:13.126Z,18.17
2022-10-01T03:37:41.203Z,22.30
2022-10-01T03:40:10.245Z,19.27
2022-10-01T03:42:38.317Z,23.53
2022-10-01T03:45:07.264Z,19.80
2022-10-01T03:47:35.356Z,19.27
2022-10-01T03:50:03.534Z,19.07
2022-10-01T03:52:32.963Z,17.60
2022-10-01T03:55:01.696Z,23.77
2022-10-01T03:57:29.758Z,22.60
2022-10-01T03:59:57.874Z,23.43
2022-10-01T04:02:27.695Z,20.67
2022-10-01T04:04:55.933Z,21.60
2022-10-01T04:07:24.023Z,24.47
2022-10-01T04:09:53.456Z,26.23
2022-10-01T04:12:21.572Z,21.20
2022-10-01T04:14:49.711Z,26.67
2022-10-01T04:17:17.831Z,28.53
2022-10-01T04:19:45.923Z,27.30
2022-10-01T04:22:14.062Z,25.87
2022-10-01T04:24:42.156Z,23.13
2022-10-01T04:27:11.577Z,25.93
2022-10-01T04:29:40.483Z,27.57
2022-10-01T04:32:08.665Z,27.53
2022-10-01T04:34:54.935Z,24.73
2022-10-01T04:37:24.348Z,29.23
2022-10-01T04:39:52.455Z,27.27
2022-10-01T04:42:22.701Z,25.77
2022-10-01T04:44:50.848Z,25.83
2022-10-01T04:47:18.907Z,24.97
2022-10-01T04:49:46.946Z,26.20
2022-10-01T04:52:15.040Z,28.40
2022-10-01T04:54:43.093Z,29.27
2022-10-01T04:57:12.185Z,28.57
2022-10-01T04:59:41.579Z,27.03
2022-10-01T05:02:09.955Z,31.13
2022-10-01T05:04:38.088Z,27.20
2022-10-01T05:07:06.531Z,27.27
2022-10-01T05:09:35.083Z,32.40
2022-10-01T05:12:03.552Z,28.17
2022-10-01T05:14:31.602Z,32.27
2022-10-01T05:17:01.035Z,28.13
2022-10-01T05:19:29.625Z,29.03
2022-10-01T05:21:57.761Z,29.93
2022-10-01T05:24:26.370Z,29.73
2022-10-01T05:26:54.963Z,26.20
2022-10-01T05:29:23.420Z,26.77
2022-10-01T05:31:51.605Z,25.53
2022-10-01T05:34:21.108Z,28.33
2022-10-01T05:36:49.201Z,31.87
2022-10-01T05:39:17.402Z,25.77
2022-10-01T05:41:45.460Z,26.47
2022-10-01T05:44:13.595Z,28.40
2022-10-01T05:46:42.260Z,26.23
2022-10-01T05:49:10.741Z,27.47
2022-10-01T05:51:40.232Z,23.17
2022-10-01T05:54:08.542Z,26.20
2022-10-01T05:56:36.752Z,23.67
2022-10-01T05:59:04.975Z,24.23
2022-10-01T06:01:33.615Z,24.30
2022-10-01T06:04:02.594Z,24.93
2022-10-01T06:06:30.939Z,24.80
2022-10-01T06:09:00.899Z,23.13
2022-10-01T06:11:29.004Z,23.30
2022-10-01T06:13:57.113Z,29.70
2022-10-01T06:16:25.295Z,25.83
2022-10-01T06:18:57.354Z,25.13
2022-10-01T06:21:25.904Z,23.23
2022-10-01T06:23:55.001Z,23.60
2022-10-01T06:26:24.988Z,24.03
2022-10-01T06:28:53.599Z,23.83
2022-10-01T06:31:22.813Z,20.77
2022-10-01T06:33:50.964Z,20.50
2022-10-01T06:36:19.224Z,21.03
2022-10-01T06:38:49.526Z,20.77
2022-10-01T06:41:18.557Z,21.13
2022-10-01T06:43:50.219Z,20.00
2022-10-01T06:46:18.394Z,19.70
2022-10-01T06:48:46.496Z,20.57
2022-10-01T06:51:14.577Z,21.43
2022-10-01T06:53:41.689Z,20.53
2022-10-01T06:56:10.037Z,19.10
2022-10-01T06:58:38.317Z,18.17
2022-10-01T07:01:07.811Z,19.10
2022-10-01T07:03:35.971Z,15.93
2022-10-01T07:06:07.908Z,16.77
2022-10-01T07:08:36.018Z,18.33
2022-10-01T07:11:04.997Z,14.53
2022-10-01T07:13:33.176Z,16.93
2022-10-01T07:16:03.681Z,17.87
2022-10-01T07:18:33.240Z,16.40
2022-10-01T07:21:01.518Z,16.23
2022-10-01T07:23:30.038Z,15.30
2022-10-01T07:25:58.914Z,14.77
2022-10-01T07:28:28.133Z,14.73
2022-10-01T07:31:02.977Z,14.30
2022-10-01T07:33:32.421Z,14.17
2022-10-01T07:36:02.416Z,15.13
2022-10-01T07:38:30.570Z,13.33
2022-10-01T07:40:59.118Z,16.00
2022-10-01T07:43:27.196Z,14.87
2022-10-01T07:45:58.145Z,15.57
2022-10-01T07:48:27.458Z,12.97
2022-10-01T07:50:57.906Z,13.03
2022-10-01T07:53:27.489Z,12.70
2022-10-01T07:55:55.569Z,12.47
2022-10-01T07:58:24.429Z,11.90
2022-10-01T08:00:55.995Z,12.37
2022-10-01T08:03:24.330Z,11.17
2022-10-01T08:05:53.024Z,13.90
2022-10-01T08:08:22.693Z,10.33
2022-10-01T08:10:51.219Z,10.70
2022-10-01T08:13:24.600Z,10.13
2022-10-01T08:15:54.736Z,10.60
2022-10-01T08:18:24.277Z,11.33
2022-10-01T08:20:52.452Z,11.57
2022-10-01T08:23:22.582Z,10.63
2022-10-01T08:25:50.896Z,12.90
2022-10-01T08:28:19.524Z,12.77
2022-10-01T08:30:47.635Z,9.70
2022-10-01T08:33:16.106Z,18.58
2022-10-01T08:35:44.522Z,13.70
2022-10-01T08:38:13.818Z,12.20
2022-10-01T08:40:48.969Z,12.10
2022-10-01T08:43:38.332Z,10.82
2022-10-01T08:46:13.942Z,10.93
2022-10-01T08:48:57.319Z,11.65
2022-10-01T08:51:34.042Z,11.07
2022-10-01T08:54:16.454Z,15.95
2022-10-01T08:56:48.588Z,13.40
2022-10-01T08:59:34.758Z,12.37
2022-10-01T09:02:03.568Z,10.40
2022-10-01T09:04:31.714Z,10.60
2022-10-01T09:07:14.324Z,12.23
2022-10-01T09:09:50.263Z,11.45
2022-10-01T09:12:37.071Z,10.83
2022-10-01T09:15:20.989Z,10.75
2022-10-01T09:18:13.228Z,12.60
2022-10-01T09:20:49.113Z,10.90
2022-10-01T09:23:28.648Z,12.57
2022-10-01T09:25:59.887Z,11.38
2022-10-01T09:28:32.681Z,13.30
2022-10-01T09:31:13.052Z,13.48
2022-10-01T09:33:56.471Z,10.33
2022-10-01T09:36:33.644Z,9.68
2022-10-01T09:39:15.955Z,10.33
2022-10-01T09:41:46.116Z,10.93
2022-10-01T09:44:23.689Z,10.88
2022-10-01T09:46:51.781Z,10.50
2022-10-01T09:49:31.517Z,10.15
2022-10-01T09:52:07.174Z,12.05
2022-10-01T09:54:43.032Z,12.88
2022-10-01T09:57:17.099Z,11.30
2022-10-01T09:59:55.983Z,13.07
2022-10-01T10:02:32.286Z,11.80
2022-10-01T10:05:01.989Z,10.30
2022-10-01T10:07:32.370Z,12.07
2022-10-01T10:10:12.995Z,9.25
2022-10-01T10:12:44.055Z,9.55
2022-10-01T10:15:19.701Z,12.73
2022-10-01T10:17:51.817Z,11.00
2022-10-01T10:20:30.464Z,12.02
2022-10-01T10:23:09.794Z,9.27
2022-10-01T10:25:37.883Z,11.35
2022-10-01T10:28:06.869Z,6.82
2022-10-01T10:30:38.573Z,9.27
2022-10-01T10:33:08.193Z,7.47
2022-10-01T10:35:37.116Z,10.10
2022-10-01T10:38:05.652Z,8.13
2022-10-01T10:40:42.853Z,9.53
2022-10-01T10:43:20.747Z,11.52
2022-10-01T10:45:55.992Z,8.23
2022-10-01T10:48:31.891Z,8.53
2022-10-01T10:51:02.954Z,11.65
2022-10-01T10:53:43.899Z,11.18
2022-10-01T10:56:22.944Z,7.78
2022-10-01T10:58:53.668Z,10.63
2022-10-01T11:01:30.052Z,10.02
2022-10-01T11:04:01.536Z,6.97
2022-10-01T11:06:30.284Z,6.82
2022-10-01T11:09:07.210Z,6.55
2022-10-01T11:11:51.161Z,6.57
2022-10-01T11:14:38.825Z,5.07
2022-10-01T11:17:40.445Z,5.05
2022-10-01T11:20:27.957Z,5.35
2022-10-01T11:23:16.817Z,5.30
2022-10-01T11:26:02.114Z,4.75
2022-10-01T11:28:44.245Z,5.18
2022-10-01T11:31:25.058Z,7.32
2022-10-01T11:34:14.424Z,6.47
2022-10-01T11:36:55.843Z,5.18
2022-10-01T11:39:28.134Z,6.18
2022-10-01T11:42:03.442Z,6.68
2022-10-01T11:44:40.440Z,6.10
2022-10-01T11:47:16.673Z,5.40
2022-10-01T11:49:59.597Z,4.38
2022-10-01T11:52:41.935Z,3.63
2022-10-01T11:55:37.674Z,4.97
2022-10-01T11:58:34.455Z,4.57
2022-10-01T12:01:13.544Z,5.80
2022-10-01T12:04:01.603Z,4.07
2022-10-01T12:06:39.968Z,3.08
2022-10-01T12:09:21.029Z,4.45
2022-10-01T12:12:01.172Z,3.08
2022-10-01T12:14:38.886Z,3.70
2022-10-01T12:17:19.897Z,4.45
2022-10-01T12:19:53.404Z,3.50
2022-10-01T12:22:31.005Z,5.03
2022-10-01T12:24:59.121Z,4.10
2022-10-01T12:27:48.398Z,2.08
2022-10-01T12:30:21.280Z,2.60
2022-10-01T12:33:05.709Z,2.33
2022-10-01T12:35:53.393Z,2.03
2022-10-01T12:38:40.560Z,2.22
2022-10-01T12:41:25.474Z,2.13
2022-10-01T12:44:07.311Z,9.88
2022-10-01T12:46:49.133Z,7.95
2022-10-01T12:49:29.787Z,1.92
2022-10-01T12:52:08.154Z,3.33
2022-10-01T12:54:58.799Z,2.25
2022-10-01T12:57:43.344Z,2.92
2022-10-01T13:00:18.889Z,1.73
2022-10-01T13:03:37.339Z,2.28
2022-10-01T13:06:31.287Z,1.75
2022-10-01T13:09:15.669Z,1.20
2022-10-01T13:12:12.000Z,1.50
2022-10-01T13:14:44.380Z,2.92
2022-10-01T13:17:23.017Z,1.50
2022-10-01T13:19:59.209Z,2.95
2022-10-01T13:22:37.659Z,3.80
2022-10-01T13:25:25.939Z,2.90
2022-10-01T13:28:02.840Z,2.53
2022-10-01T13:30:44.824Z,2.45
2022-10-01T13:33:26.128Z,2.33
2022-10-01T13:35:58.490Z,2.35
2022-10-01T13:38:31.844Z,3.63
2022-10-01T13:41:03.091Z,0.77
2022-10-01T13:43:35.110Z,3.35
2022-10-01T13:46:09.814Z,2.83
2022-10-01T13:48:48.324Z,1.90
2022-10-01T13:51:17.536Z,2.55
2022-10-01T13:53:52.078Z,2.28
2022-10-01T13:56:35.063Z,1.70
2022-10-01T13:59:05.564Z,1.40
2022-10-01T14:01:43.204Z,1.05
2022-10-01T14:04:24.543Z,2.95
2022-10-01T14:06:57.884Z,1.48
2022-10-01T14:09:30.850Z,1.40
2022-10-01T14:12:23.815Z,2.80
2022-10-01T14:15:15.282Z,1.88
2022-10-01T14:17:45.992Z,1.88
2022-10-01T14:20:20.196Z,1.58
2022-10-01T14:23:09.900Z,2.67
2022-10-01T14:25:53.640Z,0.73
2022-10-01T14:28:41.862Z,1.95
2022-10-01T14:31:21.481Z,1.08
2022-10-01T14:34:29.471Z,1.98
2022-10-01T14:36:58.025Z,1.98
2022-10-01T14:39:28.746Z,1.45
2022-10-01T14:41:59.004Z,1.85
2022-10-01T14:44:29.979Z,1.70
2022-10-01T14:47:01.026Z,3.35
2022-10-01T14:49:32.322Z,2.05
2022-10-01T14:52:05.509Z,3.88
2022-10-01T14:54:43.692Z,4.03
2022-10-01T14:57:18.339Z,4.38
2022-10-01T14:59:49.811Z,4.00
2022-10-01T15:02:23.008Z,3.20
2022-10-01T15:04:55.171Z,3.97
2022-10-01T15:07:25.355Z,3.30
2022-10-01T15:09:53.737Z,1.98
2022-10-01T15:12:24.512Z,3.10
2022-10-01T15:14:55.481Z,4.38
2022-10-01T15:17:28.214Z,4.60
2022-10-01T15:19:58.513Z,4.85
2022-10-01T15:22:31.070Z,3.47
2022-10-01T15:25:02.342Z,2.88
2022-10-01T15:27:30.702Z,1.73
2022-10-01T15:30:00.769Z,4.75
2022-10-01T15:32:30.739Z,2.00
2022-10-01T15:35:03.000Z,3.85
2022-10-01T15:37:36.796Z,5.15
2022-10-01T15:40:09.353Z,2.55
2022-10-01T15:42:38.133Z,4.72
2022-10-01T15:45:25.197Z,1.98
2022-10-01T15:47:57.044Z,2.38
2022-10-01T15:50:29.002Z,3.10
2022-10-01T15:53:03.771Z,5.10
2022-10-01T15:55:44.418Z,3.75
2022-10-01T15:58:20.344Z,2.08
2022-10-01T16:01:02.982Z,0.82
2022-10-01T16:03:35.993Z,2.33
2022-10-01T16:06:08.191Z,1.65
2022-10-01T16:08:52.979Z,1.63
2022-10-01T16:11:27.615Z,2.25
2022-10-01T16:14:33.522Z,2.28
2022-10-01T16:17:35.800Z,0.85
2022-10-01T16:20:36.213Z,2.22
2022-10-01T16:23:42.704Z,1.77
2022-10-01T16:26:38.180Z,3.00
2022-10-01T16:29:25.547Z,2.65
2022-10-01T16:31:56.813Z,3.90
2022-10-01T16:34:28.234Z,3.92
2022-10-01T16:36:56.326Z,1.63
2022-10-01T16:39:24.978Z,1.25
2022-10-01T16:42:19.104Z,2.17
2022-10-01T16:44:43.268Z,1.67
2022-10-01T16:47:13.162Z,1.90
2022-10-01T16:49:41.984Z,1.52
2022-10-01T16:52:16.440Z,3.42
2022-10-01T16:54:47.039Z,1.23
2022-10-01T16:57:16.484Z,2.53
2022-10-01T16:59:45.130Z,2.58
2022-10-01T17:02:16.048Z,2.10
2022-10-01T17:04:44.310Z,5.63
2022-10-01T17:07:12.450Z,3.40
2022-10-01T17:09:40.968Z,3.25
2022-10-01T17:12:10.339Z,3.33
2022-10-01T17:14:38.465Z,2.42
2022-10-01T17:17:06.591Z,2.08
2022-10-01T17:19:36.087Z,3.28
2022-10-01T17:22:04.237Z,1.88
2022-10-01T17:24:32.867Z,3.15
2022-10-01T17:27:01.215Z,2.20
2022-10-01T17:29:30.845Z,4.55
2022-10-01T17:31:59.004Z,2.65
2022-10-01T17:34:27.150Z,5.68
2022-10-01T17:36:56.720Z,2.85
2022-10-01T17:39:25.012Z,6.05
2022-10-01T17:41:53.276Z,3.35
2022-10-01T17:44:21.385Z,4.57
2022-10-01T17:46:49.518Z,3.80
2022-10-01T17:49:18.544Z,1.85
2022-10-01T17:51:48.008Z,3.78
2022-10-01T17:54:17.655Z,2.45
2022-10-01T17:56:45.891Z,2.67
2022-10-01T17:59:14.187Z,2.80
2022-10-01T18:01:42.289Z,1.90
2022-10-01T18:04:12.359Z,3.40
2022-10-01T18:06:41.510Z,4.18
2022-10-01T18:09:09.685Z,3.65
2022-10-01T18:11:39.381Z,1.70
2022-10-01T18:14:07.921Z,3.88
2022-10-01T18:16:36.936Z,1.52
2022-10-01T18:19:52.467Z,2.00
2022-10-01T18:21:54.068Z,3.22
2022-10-01T18:24:22.271Z,4.50
2022-10-01T18:26:52.956Z,3.75
2022-10-01T18:29:23.720Z,4.20
2022-10-01T18:31:55.970Z,4.03
2022-10-01T18:34:32.822Z,4.45
2022-10-01T18:37:06.849Z,2.85
2022-10-01T18:39:40.977Z,8.20
2022-10-01T18:42:20.139Z,3.78
2022-10-01T18:44:56.364Z,6.55
2022-10-01T18:47:37.091Z,6.78
2022-10-01T18:50:25.581Z,5.55
2022-10-01T18:53:25.665Z,7.55
2022-10-01T18:56:25.165Z,9.32
2022-10-01T18:59:37.162Z,5.90
2022-10-01T19:02:50.567Z,6.55
2022-10-01T19:05:51.344Z,6.10
2022-10-01T19:08:37.975Z,3.80
2022-10-01T19:11:18.972Z,6.00
2022-10-01T19:14:01.034Z,2.40
2022-10-01T19:16:47.949Z,1.98
2022-10-01T19:19:38.029Z,2.80
2022-10-01T19:22:21.646Z,2.17
2022-10-01T19:25:06.539Z,2.20
2022-10-01T19:27:54.991Z,1.90
2022-10-01T19:30:23.294Z,2.90
2022-10-01T19:33:04.230Z,3.78
2022-10-01T19:35:38.608Z,4.85
2022-10-01T19:38:16.677Z,2.60
2022-10-01T19:40:53.819Z,3.22
2022-10-01T19:43:30.617Z,2.78
2022-10-01T19:46:05.385Z,4.15
2022-10-01T19:48:49.961Z,3.38
2022-10-01T19:51:23.999Z,2.47
2022-10-01T19:54:01.394Z,3.08
2022-10-01T19:56:32.997Z,4.03
2022-10-01T19:59:06.674Z,4.22
2022-10-01T20:01:42.524Z,3.33
2022-10-01T20:04:21.402Z,3.97
2022-10-01T20:07:00.483Z,3.60
2022-10-01T20:09:35.084Z,5.55
2022-10-01T20:12:18.021Z,7.38
2022-10-01T20:15:11.797Z,5.47
2022-10-01T20:18:13.036Z,5.45
2022-10-01T20:21:01.297Z,3.85
2022-10-01T20:23:44.088Z,3.35
2022-10-01T20:26:26.499Z,5.25
2022-10-01T20:29:23.370Z,5.10
2022-10-01T20:32:04.571Z,6.25
2022-10-01T20:34:46.196Z,3.15
2022-10-01T20:37:35.732Z,2.60
2022-10-01T20:40:17.889Z,5.25
2022-10-01T20:42:51.256Z,4.70
2022-10-01T20:45:27.319Z,4.20
2022-10-01T20:48:00.014Z,4.68
2022-10-01T20:50:34.880Z,3.65
2022-10-01T20:53:21.240Z,3.03
2022-10-01T20:55:55.388Z,2.40
2022-10-01T20:58:29.231Z,4.47
2022-10-01T21:01:05.383Z,3.67
2022-10-01T21:03:40.153Z,3.67
2022-10-01T21:06:16.146Z,4.82
2022-10-01T21:08:53.493Z,2.92
2022-10-01T21:11:33.317Z,2.60
2022-10-01T21:14:15.609Z,2.85
2022-10-01T21:17:16.982Z,2.28
2022-10-01T21:20:12.467Z,2.03
2022-10-01T21:22:59.557Z,3.60
2022-10-01T21:25:49.113Z,1.90
2022-10-01T21:28:36.764Z,4.32
2022-10-01T21:31:23.256Z,5.15
2022-10-01T21:33:56.339Z,2.75
2022-10-01T21:36:34.495Z,3.70
2022-10-01T21:39:19.217Z,2.83
2022-10-01T21:42:01.607Z,2.20
2022-10-01T21:45:07.514Z,6.93
2022-10-01T21:47:59.710Z,4.72
2022-10-01T21:50:44.210Z,4.07
2022-10-01T21:53:55.269Z,2.08
2022-10-01T21:56:58.003Z,3.85
2022-10-01T21:59:57.253Z,4.53
2022-10-01T22:02:44.117Z,9.15
2022-10-01T22:05:24.485Z,7.55
2022-10-01T22:08:02.145Z,11.25
2022-10-01T22:10:37.383Z,6.32
2022-10-01T22:13:16.949Z,5.10
2022-10-01T22:15:48.122Z,10.05
2022-10-01T22:18:25.492Z,6.90
2022-10-01T22:20:57.152Z,4.65
2022-10-01T22:23:28.187Z,4.32
2022-10-01T22:26:02.067Z,4.00
2022-10-01T22:28:40.245Z,5.60
2022-10-01T22:31:16.534Z,2.17
2022-10-01T22:33:53.547Z,4.68
2022-10-01T22:36:30.256Z,2.65
2022-10-01T22:39:05.659Z,5.97
2022-10-01T22:41:41.295Z,6.25
2022-10-01T22:44:16.096Z,2.17
2022-10-01T22:47:29.556Z,3.65
2022-10-01T22:50:14.067Z,2.28
2022-10-01T22:52:59.683Z,7.25
2022-10-01T22:55:40.911Z,3.83
2022-10-01T22:58:36.782Z,2.83
2022-10-01T23:01:24.298Z,2.70
2022-10-01T23:04:16.418Z,4.57
2022-10-01T23:06:54.608Z,4.35
2022-10-01T23:09:36.142Z,6.30
2022-10-01T23:12:15.461Z,5.93
2022-10-01T23:14:59.173Z,2.22
2022-10-01T23:17:38.368Z,6.43
2022-10-01T23:20:29.755Z,8.07
2022-10-01T23:23:21.307Z,3.63
2022-10-01T23:26:15.688Z,4.20
2022-10-01T23:29:07.775Z,4.72
2022-10-01T23:31:44.794Z,3.78
2022-10-01T23:34:34.640Z,4.75
2022-10-01T23:37:40.905Z,3.60
2022-10-01T23:40:13.525Z,7.07
2022-10-01T23:42:53.111Z,5.68
2022-10-01T23:45:28.253Z,6.05
2022-10-01T23:48:05.339Z,3.88
2022-10-01T23:50:42.552Z,8.23
2022-10-01T23:53:17.494Z,5.10
2022-10-01T23:56:14.638Z,9.13
2022-10-01T23:58:51.014Z,5.57
